McHenry, North Dakota
Current Conditions -  °F | °C
As of 4:55 AM on Thursday 27 Nov 2014 (Local Time) from K46D Reporting Station
Clear Clear  
Wind Chill: -37°   Ceiling: Unl
Heat Index: -20°   Visibility: 10mi
Dew Point: -26°   Wind: 7mph
Humidity: 76%   Direction: 170°S
Pressure: 30.43"   Gusts: NA
Location:  47.58°N, 98.59°W
Report Text: K46D 271055Z AUTO 17006KT 10SM CLR M29/M32 A3043 RMK AO2
Loading
Personal Weather Stations






























Interactive Weather Map New forecast layout! Learn more

10-Day Weather Forecast

Advertisements
Track Severe Weather on mobile